トロムソ の空港の天気 - METARとTAF

トロムソ空港 ( ENTC / TOS ) - ノルウェー トロムス県トロムソ
飛行場実況気象(Metar)
観測時間05/28 23:50 CEST (05/28 21:50 UTC)
風向・風速北東 6m/s
視程10km以上
天気現象
全天の8割程度の雲 雲底高度 3660m
気温9℃
湿度66%
気圧1008hPa
METARENTC 282150Z AUTO 04011KT 9999 BKN120/// 09/03 Q1008 RMK WIND 2600FT 10014KT
過去の天気等 Google飛行場航空写真 Wunderground天気予報

過去48時間のMETAR

飛行場予報(TAF)
発表時間: -
TAF ENTC 2818/2918 06009KT 9999 FEW042 SCT070